Time;durP1;ratioP1;P1;durP2;ratioP2;P2;SDS_P1;SDS_P2;PMS_P1;PMS_P2;Temp;Humidity;BMP_temperature;BMP_pressure;BME280_temperature;BME280_humidity;BME280_pressure;Samples;Min_cycle;Max_cycle;Signal;HPM_P1;HPM_P2
2024/04/11 00:01:23;;;;;;;5.75;2.45;;;;;;;9.04;77.64;99398.22;5520113;25;20021;-81
2024/04/11 00:03:48;;;;;;;3.75;2.33;;;;;;;8.89;78.03;99380.25;5508992;25;19995;-83
2024/04/11 00:06:14;;;;;;;4.53;2.50;;;;;;;8.98;77.80;99386.81;5482938;26;20526;-81
2024/04/11 00:08:40;;;;;;;2.80;2.30;;;;;;;9.05;78.25;99404.47;5491850;26;20006;-82
2024/04/11 00:11:05;;;;;;;2.85;2.47;;;;;;;8.60;78.62;99367.91;5490061;26;20002;-82
2024/04/11 00:13:30;;;;;;;4.13;2.40;;;;;;;8.95;78.90;99411.69;5521134;25;19998;-82
2024/04/11 00:15:57;;;;;;;4.32;2.30;;;;;;;8.79;78.53;99372.88;5466995;26;19995;-82
2024/04/11 00:18:24;;;;;;;5.47;2.63;;;;;;;9.04;78.79;99384.44;5520675;26;19998;-83
2024/04/11 00:20:50;;;;;;;3.95;2.60;;;;;;;9.39;77.18;99410.84;5491941;26;19998;-82
2024/04/11 00:23:16;;;;;;;3.28;2.47;;;;;;;9.19;76.13;99354.72;5492282;26;20006;-83
2024/04/11 00:25:42;;;;;;;3.35;2.55;;;;;;;9.34;75.74;99370.69;5514189;26;19998;-82
2024/04/11 00:28:09;;;;;;;2.92;2.42;;;;;;;9.44;74.72;99363.50;5509222;26;20082;-83
2024/04/11 00:30:36;;;;;;;4.63;2.20;;;;;;;9.60;74.09;99373.94;5519582;25;19998;-83
2024/04/11 00:33:01;;;;;;;6.57;2.22;;;;;;;9.75;72.91;99381.63;5460695;26;20343;-83
2024/04/11 00:35:27;;;;;;;8.70;2.90;;;;;;;9.99;72.13;99395.50;5479573;26;19998;-83
2024/04/11 00:37:53;;;;;;;2.72;2.10;;;;;;;10.00;71.22;99392.34;5489338;26;19998;-84
2024/04/11 00:40:20;;;;;;;6.30;2.20;;;;;;;10.09;70.75;99383.53;5488706;26;20014;-82
2024/04/11 00:42:45;;;;;;;8.60;2.35;;;;;;;10.22;69.98;99403.88;5488849;26;20013;-81
2024/04/11 00:45:12;;;;;;;2.83;2.10;;;;;;;10.19;70.45;99399.97;5488776;26;20002;-82
2024/04/11 00:47:40;;;;;;;4.25;2.13;;;;;;;10.09;70.23;99373.25;5489314;26;20002;-81
2024/04/11 00:50:06;;;;;;;2.97;2.00;;;;;;;10.12;70.20;99380.72;5489233;26;20085;-84
2024/04/11 00:52:33;;;;;;;3.90;2.08;;;;;;;10.28;69.86;99402.22;5489879;26;19998;-82
2024/04/11 00:54:59;;;;;;;2.72;1.83;;;;;;;10.00;69.61;99348.16;5488987;26;20518;-84
2024/04/11 00:57:26;;;;;;;2.05;1.83;;;;;;;10.01;70.00;99354.44;5488527;26;20010;-81
2024/04/11 00:59:53;;;;;;;5.38;2.47;;;;;;;10.14;70.18;99380.28;5485526;26;19998;-83
2024/04/11 01:02:19;;;;;;;5.07;1.97;;;;;;;10.14;69.59;99380.28;5469472;26;20002;-82
2024/04/11 01:04:44;;;;;;;5.85;2.08;;;;;;;10.14;69.68;99385.81;5488830;26;20012;-81
2024/04/11 01:07:12;;;;;;;1.50;1.40;;;;;;;10.30;69.80;99405.34;5520009;25;20079;-82
2024/04/11 01:09:46;;;;;;;1.77;1.60;;;;;;;10.30;70.06;99401.81;5490750;26;20030;-82
2024/04/11 01:12:12;;;;;;;2.95;1.83;;;;;;;10.09;69.85;99381.56;5480002;26;19998;-82
2024/04/11 01:14:42;;;;;;;5.32;2.22;;;;;;;9.98;69.33;99363.56;5482293;26;20003;-82
2024/04/11 01:17:10;;;;;;;3.55;1.85;;;;;;;10.11;69.17;99384.69;5473009;26;20359;-82
2024/04/11 01:19:36;;;;;;;3.33;2.42;;;;;;;10.04;69.22;99370.19;5490556;26;20006;-81
2024/04/11 01:22:02;;;;;;;5.40;1.98;;;;;;;10.06;69.36;99379.63;5518808;25;20658;-82
2024/04/11 01:24:27;;;;;;;3.70;1.98;;;;;;;10.05;69.26;99383.59;5488481;26;20002;-82
2024/04/11 01:26:54;;;;;;;3.50;2.10;;;;;;;9.84;69.33;99344.44;5490307;26;20010;-84
2024/04/11 01:29:20;;;;;;;3.23;2.37;;;;;;;9.90;69.48;99359.34;5481964;26;20075;-82
2024/04/11 01:31:45;;;;;;;3.50;2.05;;;;;;;9.89;69.81;99363.28;5471983;26;20879;-80
2024/04/11 01:34:11;;;;;;;3.40;2.20;;;;;;;9.75;70.48;99356.00;5519109;25;19998;-81
2024/04/11 01:36:36;;;;;;;3.45;2.20;;;;;;;9.35;71.42;99341.91;5488457;26;19998;-82
2024/04/11 01:39:04;;;;;;;2.50;2.17;;;;;;;9.64;72.08;99403.06;5487275;26;20427;-82
2024/04/11 01:41:30;;;;;;;3.53;2.38;;;;;;;9.37;72.85;99383.66;5486980;26;20049;-82
2024/04/11 01:43:56;;;;;;;3.47;2.17;;;;;;;9.20;73.48;99364.56;5518511;25;20439;-81
2024/04/11 01:46:22;;;;;;;2.88;2.25;;;;;;;8.90;74.01;99340.47;5488213;26;20096;-80
2024/04/11 01:48:47;;;;;;;3.70;1.90;;;;;;;9.15;74.94;99371.31;5489373;26;20006;-81
2024/04/11 01:51:14;;;;;;;5.35;2.15;;;;;;;9.40;74.28;99390.34;5490393;26;20016;-82
2024/04/11 01:53:40;;;;;;;4.43;2.28;;;;;;;9.51;74.28;99399.28;5518452;25;20344;-82
2024/04/11 01:56:06;;;;;;;2.90;2.28;;;;;;;9.37;73.18;99394.69;5488477;26;20009;-81
2024/04/11 01:58:32;;;;;;;6.72;2.65;;;;;;;8.84;73.84;99351.16;5508455;25;20376;-83
2024/04/11 02:01:12;;;;;;;4.50;2.17;;;;;;;9.06;75.50;99403.31;5519152;25;20012;-83
2024/04/11 02:03:41;;;;;;;2.70;2.00;;;;;;;8.70;76.49;99384.34;5482675;26;19999;-82
2024/04/11 02:06:07;;;;;;;4.50;2.40;;;;;;;8.62;76.72;99371.81;5478175;26;20013;-82
2024/04/11 02:08:34;;;;;;;1.85;1.70;;;;;;;8.59;77.59;99350.59;5505141;26;20017;-81
2024/04/11 02:11:00;;;;;;;5.95;2.20;;;;;;;8.94;77.30;99385.31;5511449;26;19994;-82
2024/04/11 02:13:26;;;;;;;3.03;1.85;;;;;;;8.88;75.93;99346.38;5500270;26;20002;-82
2024/04/11 02:15:54;;;;;;;5.75;2.00;;;;;;;9.13;74.23;99356.38;5482982;26;20471;-81
2024/04/11 02:18:19;;;;;;;;;;;;;;;9.66;73.20;99400.66;5510323;26;19998;-82
2024/04/11 02:20:44;;;;;;;8.63;2.75;;;;;;;9.68;72.24;99378.97;5487986;26;20237;-83
2024/04/11 02:23:10;;;;;;;2.58;2.05;;;;;;;9.82;71.34;99374.47;5488057;26;20006;-83
2024/04/11 02:25:36;;;;;;;3.35;2.05;;;;;;;9.68;70.66;99350.59;5537835;25;20006;-81
2024/04/11 02:28:03;;;;;;;5.65;2.42;;;;;;;9.37;70.98;99327.72;5510741;26;19995;-83
2024/04/11 02:30:29;;;;;;;5.63;2.00;;;;;;;9.87;70.97;99385.81;5486749;26;20141;-81
2024/04/11 02:32:54;;;;;;;2.15;1.60;;;;;;;9.67;69.77;99341.53;5503797;25;20022;-81
2024/04/11 02:35:20;;;;;;;3.25;2.50;;;;;;;9.98;69.67;99394.72;5476469;26;19998;-83
2024/04/11 02:37:45;;;;;;;;;;;;;;;9.91;69.03;99407.84;5487418;26;20009;-82
2024/04/11 02:40:10;;;;;;;;;;;;;;;9.63;70.27;99401.50;5487063;26;19924;-82
2024/04/11 02:42:39;;;;;;;4.23;2.47;;;;;;;9.45;72.42;99408.41;5484263;26;20814;-82
2024/04/11 02:45:07;;;;;;;3.08;2.10;;;;;;;8.99;72.83;99330.53;5485952;26;20002;-82
2024/04/11 02:47:36;;;;;;;2.80;2.15;;;;;;;9.32;72.48;99370.34;5516514;25;20006;-82
2024/04/11 02:50:02;;;;;;;6.13;2.00;;;;;;;9.31;72.11;99349.47;5486646;26;20017;-82
2024/04/11 02:52:28;;;;;;;5.07;2.00;;;;;;;9.66;70.53;99356.50;5489102;26;19998;-83
2024/04/11 02:54:54;;;;;;;4.05;2.22;;;;;;;9.93;70.01;99386.13;5521093;25;20453;-82
2024/04/11 02:57:21;;;;;;;10.60;2.50;;;;;;;9.98;69.06;99391.97;5484356;26;19998;-81
2024/04/11 02:59:50;;;;;;;2.92;2.00;;;;;;;10.09;68.81;99394.56;5490549;26;19998;-82
2024/04/11 03:02:17;;;;;;;7.57;2.17;;;;;;;9.87;68.55;99372.00;5490821;26;20028;-81
2024/04/11 03:04:43;;;;;;;4.15;1.88;;;;;;;9.87;69.12;99388.56;5490385;26;20820;-83
2024/04/11 03:07:09;;;;;;;3.30;2.10;;;;;;;9.72;69.54;99376.94;5490696;26;20002;-81
2024/04/11 03:09:34;;;;;;;2.97;2.13;;;;;;;9.87;70.17;99402.38;5491718;26;20074;-81
2024/04/11 03:12:00;;;;;;;4.70;1.88;;;;;;;9.79;69.91;99396.16;5489381;26;20039;-81
2024/04/11 03:14:26;;;;;;;4.72;1.98;;;;;;;9.47;70.19;99343.34;5490695;26;19998;-82
2024/04/11 03:16:52;;;;;;;7.40;2.00;;;;;;;9.61;70.29;99358.94;5491531;26;20013;-81
2024/04/11 03:19:18;;;;;;;3.70;2.00;;;;;;;9.61;70.29;99365.25;5490195;26;20323;-81
2024/04/11 03:21:44;;;;;;;2.97;2.05;;;;;;;9.63;69.94;99371.16;5489908;26;19998;-81
2024/04/11 03:24:11;;;;;;;3.25;2.08;;;;;;;9.90;69.81;99395.22;5490084;26;20017;-83
2024/04/11 03:26:40;;;;;;;2.72;1.70;;;;;;;9.87;68.94;99372.00;5490230;26;20086;-83
2024/04/11 03:29:05;;;;;;;;;;;;;;;10.18;68.86;99420.50;5490435;26;19998;-82
2024/04/11 03:31:31;;;;;;;8.38;2.00;;;;;;;9.83;69.16;99382.31;5490633;26;19939;-83
2024/04/11 03:33:59;;;;;;;5.28;1.65;;;;;;;9.94;68.79;99410.56;5490821;26;20009;-83
2024/04/11 03:36:24;;;;;;;4.78;2.05;;;;;;;9.65;69.67;99354.94;5490083;26;19994;-83
2024/04/11 03:38:54;;;;;;;12.13;2.10;;;;;;;9.93;69.29;99403.47;5489370;26;20005;-82
2024/04/11 03:41:20;;;;;;;3.67;2.20;;;;;;;9.95;69.37;99427.88;5490369;26;19998;-84
2024/04/11 03:43:46;;;;;;;;;;;;;;;10.01;69.68;99421.50;5489917;26;20017;-84
2024/04/11 03:46:18;;;;;;;;;;;;;;;10.01;69.66;99438.06;5490304;26;19935;-82
2024/04/11 03:48:45;;;;;;;;;;;;;;;9.91;70.33;99435.44;5483112;26;20276;-82
2024/04/11 03:51:13;;;;;;;;;;;;;;;9.80;71.09;99438.34;5475548;26;19961;-83
2024/04/11 03:53:38;;;;;;;;;;;;;;;9.62;72.13;99435.00;5491739;26;19931;-83
2024/04/11 03:56:10;;;;;;;;;;;;;;;9.52;72.94;99439.47;5490554;26;19924;-84
2024/04/11 03:58:37;;;;;;;;;;;;;;;9.63;72.86;99434.59;5490148;26;19932;-82
2024/04/11 04:01:05;;;;;;;;;;;;;;;9.58;73.08;99443.34;5490295;26;19924;-83
2024/04/11 04:03:30;;;;;;;;;;;;;;;9.55;73.25;99438.63;5490826;26;19931;-83
2024/04/11 04:05:56;;;;;;;;;;;;;;;9.71;72.75;99436.06;5489762;26;19923;-84
2024/04/11 04:08:21;;;;;;;;;;;;;;;9.81;72.00;99439.91;5483345;26;19940;-82
2024/04/11 04:10:46;;;;;;;;;;;;;;;9.91;71.50;99440.94;5475666;26;19935;-84
2024/04/11 04:13:11;;;;;;;;;;;;;;;10.02;70.93;99442.38;5483522;26;19924;-82
2024/04/11 04:15:37;;;;;;;;;;;;;;;10.11;70.89;99455.69;5475503;26;19924;-82
2024/04/11 04:18:03;;;;;;;;;;;;;;;10.14;70.91;99443.81;5489674;26;19924;-81
2024/04/11 04:20:28;;;;;;;;;;;;;;;10.27;70.33;99458.66;5491707;26;19934;-83
2024/04/11 04:22:53;;;;;;;;;;;;;;;10.45;69.74;99453.66;5489734;26;20354;-83
2024/04/11 04:25:19;;;;;;;;;;;;;;;10.44;68.93;99460.38;5490040;26;20001;-83
2024/04/11 04:27:44;;;;;;;;;;;;;;;10.42;69.09;99457.25;5488497;26;19934;-81
2024/04/11 04:30:11;;;;;;;;;;;;;;;10.89;68.14;99460.09;5490028;26;19931;-83
2024/04/11 04:32:37;;;;;;;;;;;;;;;11.32;64.96;99463.69;5489408;26;19924;-82
2024/04/11 04:35:06;;;;;;;;;;;;;;;12.02;62.53;99463.53;5489814;26;19924;-82
2024/04/11 04:37:31;;;;;;;;;;;;;;;12.88;59.18;99468.72;5488897;26;19931;-82
2024/04/11 04:39:59;;;;;;;;;;;;;;;13.43;55.40;99461.41;5489446;26;19924;-84
2024/04/11 04:42:24;;;;;;;;;;;;;;;13.85;54.06;99471.34;5483877;26;19924;-85
2024/04/11 04:44:50;;;;;;;;;;;;;;;14.68;51.54;99461.38;5499694;26;19923;-82
2024/04/11 04:47:16;;;;;;;;;;;;;;;15.56;48.73;99471.56;5508911;26;19932;-81
2024/04/11 04:49:45;;;;;;;;;;;;;;;15.63;48.49;99477.66;5490787;26;19931;-81
2024/04/11 04:52:10;;;;;;;;;;;;;;;16.05;47.69;99480.91;5486837;26;19924;-81
2024/04/11 04:54:35;;;;;;;;;;;;;;;17.08;45.99;99471.34;5468609;26;19931;-83
2024/04/11 04:57:01;;;;;;;;;;;;;;;17.75;43.42;99478.88;5465216;26;19939;-83
2024/04/11 04:59:26;;;;;;;;;;;;;;;18.49;42.19;99481.09;5487699;26;19924;-82
2024/04/11 05:01:53;;;;;;;;;;;;;;;18.56;41.39;99477.22;5487166;26;19924;-83
2024/04/11 05:04:18;;;;;;;;;;;;;;;18.96;41.04;99482.47;5489560;26;19948;-83
2024/04/11 05:06:44;;;;;;;;;;;;;;;19.54;39.49;99479.19;5490399;26;19931;-86
2024/04/11 05:09:10;;;;;;;;;;;;;;;20.05;38.83;99481.72;5490436;26;19924;-83
2024/04/11 05:11:35;;;;;;;;;;;;;;;19.94;39.31;99478.69;5483554;26;19924;-85
2024/04/11 05:14:07;;;;;;;;;;;;;;;19.87;39.09;99493.09;5489348;26;19923;-85
2024/04/11 05:16:33;;;;;;;;;;;;;;;19.91;39.25;99490.88;5484983;26;19939;-82
2024/04/11 05:18:58;;;;;;;;;;;;;;;20.11;38.44;99496.63;5488971;26;19923;-85
2024/04/11 05:21:24;;;;;;;;;;;;;;;20.11;37.90;99499.41;5486751;26;20382;-83
2024/04/11 05:23:50;;;;;;;;;;;;;;;20.63;37.08;99500.59;5485702;26;19924;-84
2024/04/11 05:26:15;;;;;;;;;;;;;;;20.95;37.53;99504.44;5484432;26;19924;-83
2024/04/11 05:28:44;;;;;;;;;;;;;;;21.80;35.90;99504.31;5485490;26;19923;-81
2024/04/11 05:31:18;;;;;;;;;;;;;;;22.61;34.52;99502.06;5485817;26;19923;-83
2024/04/11 05:33:45;;;;;;;;;;;;;;;23.11;33.70;99499.66;5485789;26;19923;-83
2024/04/11 05:36:17;;;;;;;;;;;;;;;23.85;32.13;99508.00;5486912;26;19934;-84
2024/04/11 05:38:44;;;;;;;;;;;;;;;24.09;30.79;99516.03;5487797;26;19935;-83
2024/04/11 05:41:10;;;;;;;;;;;;;;;24.08;31.19;99513.72;5484414;26;20248;-82
2024/04/11 05:43:35;;;;;;;;;;;;;;;23.80;31.88;99508.75;5479429;26;19927;-82
2024/04/11 05:46:02;;;;;;;;;;;;;;;23.76;31.61;99511.03;5488874;26;19951;-85
2024/04/11 05:48:28;;;;;;;;;;;;;;;24.15;31.34;99508.34;5488717;26;19923;-83
2024/04/11 05:50:54;;;;;;;;;;;;;;;24.73;30.29;99517.16;5491994;26;19938;-84
2024/04/11 05:53:19;;;;;;;;;;;;;;;25.22;29.69;99512.00;5467508;26;20306;-83
2024/04/11 05:55:45;;;;;;;;;;;;;;;25.77;29.23;99520.34;5488977;26;19931;-83
2024/04/11 05:58:10;;;;;;;;;;;;;;;25.66;28.57;99516.78;5491501;26;19931;-83
2024/04/11 06:00:39;;;;;;;;;;;;;;;26.26;29.14;99524.22;5491816;26;19923;-86
2024/04/11 06:03:08;;;;;;;;;;;;;;;26.79;27.82;99527.69;5489152;26;20260;-83
2024/04/11 06:05:38;;;;;;;;;;;;;;;27.14;27.65;99538.22;5489760;26;19931;-85
2024/04/11 06:08:05;;;;;;;;;;;;;;;27.25;26.81;99535.28;5481502;26;19935;-87
2024/04/11 06:10:32;;;;;;;;;;;;;;;27.41;26.92;99542.88;5471033;26;19924;-84
2024/04/11 06:12:57;;;;;;;;;;;;;;;26.79;27.11;99547.53;5489087;26;19932;-84
2024/04/11 06:15:22;;;;;;;;;;;;;;;27.28;26.59;99548.44;5490868;26;20367;-85
2024/04/11 06:17:48;;;;;;;;;;;;;;;27.17;26.27;99554.22;5492614;26;19924;-85
2024/04/11 06:20:16;;;;;;;;;;;;;;;27.78;26.15;99555.66;5489094;26;19932;-83
2024/04/11 06:22:51;;;;;;;;;;;;;;;28.18;25.96;99553.88;5491877;26;19931;-83
2024/04/11 06:25:17;;;;;;;;;;;;;;;28.32;25.52;99553.41;5490799;26;19935;-84
2024/04/11 06:27:43;;;;;;;;;;;;;;;28.13;25.50;99557.53;5492524;26;19935;-84
2024/04/11 06:30:14;;;;;;;;;;;;;;;27.79;26.44;99571.41;5493350;26;19924;-83
2024/04/11 06:32:40;;;;;;;;;;;;;;;28.46;25.11;99557.06;5491389;26;19924;-85
2024/04/11 06:35:08;;;;;;;;;;;;;;;29.00;24.43;99565.28;5485679;26;19925;-84
2024/04/11 06:37:34;;;;;;;;;;;;;;;28.62;24.32;99566.66;5485907;26;19926;-84
2024/04/11 06:39:59;;;;;;;;;;;;;;;29.63;23.95;99575.06;5478715;26;19982;-84
2024/04/11 06:42:25;;;;;;;;;;;;;;;26.75;26.78;99578.25;5493933;26;19936;-85
2024/04/11 06:44:50;;;;;;;;;;;;;;;27.68;26.65;99574.34;5492957;26;19930;-85
2024/04/11 06:47:18;;;;;;;;;;;;;;;27.63;25.49;99578.78;5493945;26;19931;-83
2024/04/11 06:49:44;;;;;;;;;;;;;;;28.86;25.19;99585.72;5469910;26;20356;-85
2024/04/11 06:52:12;;;;;;;;;;;;;;;27.55;25.97;99589.19;5493850;26;19970;-86
2024/04/11 06:54:40;;;;;;;;;;;;;;;28.37;25.70;99580.22;5494287;26;19924;-84
2024/04/11 06:57:06;;;;;;;;;;;;;;;29.93;24.87;99586.91;5470358;26;19936;-86
2024/04/11 06:59:31;;;;;;;;;;;;;;;30.77;23.05;99592.88;5493202;26;20000;-83
2024/04/11 07:01:58;;;;;;;;;;;;;;;30.95;22.34;99597.63;5492379;26;19964;-84
2024/04/11 07:04:23;;;;;;;;;;;;;;;30.32;22.89;99596.72;5494127;26;19936;-83
2024/04/11 07:06:49;;;;;;;;;;;;;;;31.07;22.07;99593.19;5497305;26;20235;-84
2024/04/11 07:09:14;;;;;;;;;;;;;;;29.63;21.91;99606.38;5493430;26;20260;-84
2024/04/11 07:11:40;;;;;;;;;;;;;;;28.02;24.83;99615.28;5494776;26;19931;-83
2024/04/11 07:14:11;;;;;;;;;;;;;;;27.49;25.58;99606.25;5494484;26;19930;-83
2024/04/11 07:16:40;;;;;;;;;;;;;;;27.46;25.61;99615.06;5504938;26;19923;-82
2024/04/11 07:19:08;;;;;;;;;;;;;;;25.85;26.48;99619.66;5512400;26;19976;-80
2024/04/11 07:21:38;;;;;;;;;;;;;;;24.70;28.03;99614.28;5500435;26;19951;-83
2024/04/11 07:24:04;;;;;;;;;;;;;;;24.06;30.21;99626.38;5492088;26;19936;-85
2024/04/11 07:26:30;;;;;;;;;;;;;;;24.08;29.99;99621.00;5490625;26;19931;-85
2024/04/11 07:28:56;;;;;;;;;;;;;;;25.00;29.46;99621.03;5493103;26;19924;-86
2024/04/11 07:31:21;;;;;;;;;;;;;;;24.08;30.14;99635.13;5491159;26;19931;-83
2024/04/11 07:33:48;;;;;;;;;;;;;;;23.85;31.03;99628.59;5490356;26;19924;-85
2024/04/11 07:36:14;;;;;;;;;;;;;;;23.98;30.45;99640.22;5492924;26;19924;-84
2024/04/11 07:38:40;;;;;;;;;;;;;;;24.09;30.94;99628.97;5490957;26;19923;-84
2024/04/11 07:41:16;;;;;;;;;;;;;;;24.18;30.61;99640.06;5491826;26;20259;-85
2024/04/11 07:43:51;;;;;;;;;;;;;;;23.95;31.68;99635.56;5490110;26;19935;-84
2024/04/11 07:46:17;;;;;;;;;;;;;;;23.33;31.62;99642.09;5490906;26;19936;-85
2024/04/11 07:48:47;;;;;;;;;;;;;;;22.73;32.33;99641.81;5490406;26;19952;-84
2024/04/11 07:51:18;;;;;;;;;;;;;;;22.19;32.83;99639.88;5490486;26;20047;-84
2024/04/11 07:53:46;;;;;;;;;;;;;;;22.24;33.11;99644.81;5461689;26;19931;-85
2024/04/11 07:56:13;;;;;;;;;;;;;;;22.15;34.26;99656.22;5484255;26;19924;-84
2024/04/11 07:58:38;;;;;;;;;;;;;;;21.73;34.46;99651.00;5489714;26;19924;-83
2024/04/11 08:01:04;;;;;;;;;;;;;;;21.45;35.06;99645.00;5489810;26;19924;-85
2024/04/11 08:03:30;;;;;;;;;;;;;;;21.38;36.36;99648.97;5489949;26;20095;-84
2024/04/11 08:05:56;;;;;;;;;;;;;;;21.27;34.97;99656.47;5490465;26;19996;-83
2024/04/11 08:08:21;;;;;;;;;;;;;;;21.67;37.27;99655.78;5465849;26;20352;-83
2024/04/11 08:10:48;;;;;;;;;;;;;;;21.79;34.09;99655.47;5489102;26;19992;-83
2024/04/11 08:13:13;;;;;;;;;;;;;;;21.88;38.74;99665.81;5489571;26;19991;-84
2024/04/11 08:15:40;;;;;;;;;;;;;;;21.99;34.75;99666.00;5489726;26;19931;-84
2024/04/11 08:18:06;;;;;;;;;;;;;;;21.82;34.38;99668.53;5490075;26;19924;-86
2024/04/11 08:20:31;;;;;;;;;;;;;;;21.80;34.34;99662.66;5488607;26;19936;-80
2024/04/11 08:22:58;;;;;;;;;;;;;;;21.82;32.98;99671.34;5489852;26;20441;-86
2024/04/11 08:25:24;;;;;;;;;;;;;;;21.86;32.83;99674.75;5489805;26;19935;-83
2024/04/11 08:27:49;;;;;;;;;;;;;;;22.07;34.10;99674.78;5490631;26;20344;-81
2024/04/11 08:30:15;;;;;;;;;;;;;;;22.13;35.67;99672.81;5491680;26;19960;-87
2024/04/11 08:32:45;;;;;;;;;;;;;;;22.19;34.49;99671.63;5489433;26;19931;-83
2024/04/11 08:35:20;;;;;;;;;;;;;;;22.02;33.78;99681.13;5472120;26;19935;-83
2024/04/11 08:37:46;;;;;;;;;;;;;;;21.94;33.32;99675.88;5490859;26;19924;-83
2024/04/11 08:40:12;;;;;;;;;;;;;;;21.86;33.62;99682.41;5491516;26;19992;-81
2024/04/11 08:42:38;;;;;;;;;;;;;;;22.10;36.27;99676.63;5489657;26;19936;-86
2024/04/11 08:45:06;;;;;;;;;;;;;;;22.19;34.15;99673.66;5489820;26;19931;-82
2024/04/11 08:47:32;;;;;;;;;;;;;;;22.45;34.72;99671.69;5487334;26;19931;-81
2024/04/11 08:49:58;;;;;;;;;;;;;;;22.62;32.93;99677.50;5491264;26;19931;-79
2024/04/11 08:52:27;;;;;;;;;;;;;;;22.59;32.43;99676.47;5490800;26;20317;-81
2024/04/11 08:54:53;;;;;;;;;;;;;;;22.40;32.46;99674.44;5489272;26;19934;-81
2024/04/11 08:57:18;;;;;;;;;;;;;;;22.51;32.38;99675.34;5490597;26;19923;-81
2024/04/11 08:59:45;;;;;;;;;;;;;;;22.81;34.63;99680.81;5490838;26;19932;-81
2024/04/11 09:02:11;;;;;;;;;;;;;;;22.76;32.92;99679.50;5489066;26;19940;-79
2024/04/11 09:04:36;;;;;;;;;;;;;;;22.43;32.16;99685.47;5488806;26;19946;-81
2024/04/11 09:07:02;;;;;;;;;;;;;;;22.28;33.27;99685.56;5489561;26;19924;-81
2024/04/11 09:09:27;;;;;;;;;;;;;;;22.64;34.73;99681.38;5488703;26;19932;-82
2024/04/11 09:11:53;;;;;;;;;;;;;;;22.75;32.87;99683.56;5488474;26;19924;-83
2024/04/11 09:14:18;;;;;;;;;;;;;;;22.62;33.41;99675.47;5484198;26;19993;-82
2024/04/11 09:16:43;;;;;;;;;;;;;;;22.79;32.65;99686.16;5488400;26;19924;-84
2024/04/11 09:19:09;;;;;;;;;;;;;;;22.73;32.87;99677.66;5488174;26;19977;-79
2024/04/11 09:21:44;;;;;;;;;;;;;;;22.94;32.85;99684.81;5487832;26;20376;-78
2024/04/11 09:24:16;;;;;;;;;;;;;;;22.83;30.87;99679.06;5488191;26;19924;-81
2024/04/11 09:26:43;;;;;;;;;;;;;;;22.59;31.05;99682.09;5488474;26;19931;-80
2024/04/11 09:29:11;;;;;;;;;;;;;;;22.81;31.80;99675.94;5487709;26;20359;-85
2024/04/11 09:31:37;;;;;;;;;;;;;;;22.98;31.23;99679.72;5485948;26;20515;-80
2024/04/11 09:34:11;;;;;;;;;;;;;;;23.09;31.83;99679.03;5469610;26;19936;-80
2024/04/11 09:36:39;;;;;;;;;;;;;;;22.98;28.93;99690.22;5488123;26;19923;-83
2024/04/11 09:39:12;;;;;;;;;;;;;;;22.81;28.74;99690.03;5490587;26;19936;-82
2024/04/11 09:41:40;;;;;;;;;;;;;;;22.86;31.66;99699.81;5487379;26;19924;-87
2024/04/11 09:44:06;;;;;;;;;;;;;;;22.92;27.56;99695.00;5482429;26;19973;-82
2024/04/11 09:46:34;;;;;;;;;;;;;;;22.89;28.37;99690.38;5485730;26;19930;-84
2024/04/11 09:49:00;;;;;;;;;;;;;;;22.91;27.34;99687.81;5503590;26;19924;-81
2024/04/11 09:51:28;;;;;;;;;;;;;;;22.88;29.44;99689.59;5504234;26;19916;-81
2024/04/11 09:53:55;;;;;;;;;;;;;;;22.85;26.63;99687.78;5489751;26;19934;-84
2024/04/11 09:56:23;;;;;;;;;;;;;;;22.75;25.53;99694.84;5487535;26;19924;-82
2024/04/11 09:58:51;;;;;;;;;;;;;;;22.58;26.48;99689.00;5488210;26;19948;-83
2024/04/11 10:01:34;;;;;;;;;;;;;;;22.65;28.46;99684.97;5489101;26;20487;-83
2024/04/11 10:04:11;;;;;;;;;;;;;;;22.64;25.89;99695.47;5488124;26;20340;-82
2024/04/11 10:06:41;;;;;;;;;;;;;;;22.76;26.24;99687.16;5490171;26;19931;-84
2024/04/11 10:09:20;;;;;;;;;;;;;;;22.89;25.63;99693.97;5487787;26;19938;-82
2024/04/11 10:11:49;;;;;;;;;;;;;;;22.84;25.05;99685.47;5489908;26;19924;-82
2024/04/11 10:14:17;;;;;;;;;;;;;;;22.88;25.89;99686.03;5486958;26;20407;-81
2024/04/11 10:16:48;;;;;;;;;;;;;;;22.87;26.33;99690.09;5489579;26;20778;-83
2024/04/11 10:19:21;;;;;;;;;;;;;;;22.86;26.69;99685.72;5487544;26;19939;-80
2024/04/11 10:21:49;;;;;;;;;;;;;;;22.86;25.30;99683.69;5458030;26;19928;-84
2024/04/11 10:24:15;;;;;;;;;;;;;;;22.81;25.46;99686.44;5487701;26;20245;-82
2024/04/11 10:26:45;;;;;;;;;;;;;;;22.86;25.10;99692.13;5487628;26;19997;-84
2024/04/11 10:29:14;;;;;;;;;;;;;;;22.89;24.72;99685.53;5488753;26;19934;-84
2024/04/11 10:31:44;;;;;;;;;;;;;;;22.75;23.41;99683.56;5486985;26;19936;-82
2024/04/11 10:34:19;;;;;;;;;;;;;;;22.83;24.65;99686.75;5486523;26;19935;-82
2024/04/11 10:36:54;;;;;;;;;;;;;;;22.67;24.60;99679.59;5479240;26;19929;-81
2024/04/11 10:39:20;;;;;;;;;;;;;;;22.72;25.42;99676.88;5457474;26;19929;-82
2024/04/11 10:41:47;;;;;;;;;;;;;;;22.70;25.25;99684.25;5475573;26;19928;-84
2024/04/11 10:44:12;;;;;;;;;;;;;;;22.75;24.72;99682.81;5488383;26;19998;-82
2024/04/11 10:46:38;;;;;;;;;;;;;;;22.71;23.78;99692.22;5486725;26;20046;-81
2024/04/11 10:49:15;;;;;;;;;;;;;;;22.76;22.82;99675.91;5488323;26;19939;-82
2024/04/11 10:51:47;;;;;;;;;;;;;;;22.77;20.43;99688.72;5486829;26;19935;-80
2024/04/11 10:54:12;;;;;;;;;;;;;;;22.68;20.06;99683.97;5487670;26;19932;-84
2024/04/11 10:56:39;;;;;;;;;;;;;;;22.73;22.13;99680.47;5486844;26;19939;-84
2024/04/11 10:59:14;;;;;;;;;;;;;;;22.82;22.27;99683.16;5487088;26;20355;-82
2024/04/11 11:01:43;;;;;;;;;;;;;;;22.90;21.75;99689.91;5482314;26;19931;-85
2024/04/11 11:04:08;;;;;;;;;;;;;;;23.00;23.88;99680.00;5486835;26;19927;-81
2024/04/11 11:06:43;;;;;;;;;;;;;;;22.99;22.62;99686.91;5487046;26;19950;-81
2024/04/11 11:09:13;;;;;;;;;;;;;;;23.00;22.33;99682.03;5488631;26;19935;-82
2024/04/11 11:11:40;;;;;;;;;;;;;;;22.91;23.53;99687.81;5462303;26;19936;-81
2024/04/11 11:14:07;;;;;;;;;;;;;;;23.02;23.05;99688.75;5487593;26;20363;-85
2024/04/11 11:16:32;;;;;;;;;;;;;;;23.21;23.22;99683.50;5492526;26;20356;-80
2024/04/11 11:19:00;;;;;;;;;;;;;;;23.28;23.54;99680.22;5493221;26;19932;-81
2024/04/11 11:21:32;;;;;;;;;;;;;;;23.35;20.94;99685.44;5492541;26;20278;-81
2024/04/11 11:24:00;;;;;;;;;;;;;;;23.24;20.06;99678.91;5492239;26;19928;-81
2024/04/11 11:26:36;;;;;;;;;;;;;;;23.25;20.28;99686.88;5490575;26;20330;-81
2024/04/11 11:29:09;;;;;;;;;;;;;;;23.20;19.92;99679.16;5492639;26;20005;-81
2024/04/11 11:31:36;;;;;;;;;;;;;;;23.34;20.61;99678.22;5454211;26;19935;-81
2024/04/11 11:34:13;;;;;;;;;;;;;;;23.30;19.89;99685.38;5479152;26;19939;-81
2024/04/11 11:36:48;;;;;;;;;;;;;;;23.16;20.32;99670.13;5476121;26;20252;-82
2024/04/11 11:39:24;;;;;;;;;;;;;;;23.07;20.74;99667.50;5492739;26;20347;-83
2024/04/11 11:41:50;;;;;;;;;;;;;;;23.09;21.90;99659.31;5490661;26;19995;-83
2024/04/11 11:44:21;;;;;;;;;;;;;;;23.23;20.37;99657.63;5460507;26;19928;-85
2024/04/11 11:47:05;;;;;;;;;;;;;;;23.34;20.76;99664.13;5488171;26;20368;-85
2024/04/11 11:49:40;;;;;;;;;;;;;;;23.19;21.20;99659.91;5492967;26;19928;-82
2024/04/11 11:52:06;;;;;;;;;;;;;;;23.10;20.35;99644.72;5472475;26;20010;-82
2024/04/11 11:54:41;;;;;;;;;;;;;;;23.11;21.54;99637.03;5488982;26;20351;-83
2024/04/11 11:57:17;;;;;;;;;;;;;;;23.09;21.64;99639.56;5459972;26;19977;-83
2024/04/11 11:59:44;;;;;;;;;;;;;;;23.07;21.65;99636.50;5468937;26;19940;-83
2024/04/11 12:02:13;;;;;;;;;;;;;;;23.11;19.58;99629.34;5467896;26;19939;-80
2024/04/11 12:04:39;;;;;;;;;;;;;;;23.20;20.49;99628.41;5472450;26;19932;-82
2024/04/11 12:07:05;;;;;;;;;;;;;;;23.20;20.76;99625.59;5489915;26;19934;-85
2024/04/11 12:09:33;;;;;;;;;;;;;;;23.30;20.35;99626.16;5463567;26;19960;-86
2024/04/11 12:12:20;;;;;;;;;;;;;;;23.36;20.50;99621.34;5483245;26;19977;-82
2024/04/11 12:14:46;;;;;;;;;;;;;;;23.44;21.65;99628.06;5478654;26;20260;-84
2024/04/11 12:17:14;;;;;;;;;;;;;;;23.43;21.15;99618.06;5485480;26;19935;-85
2024/04/11 12:19:40;;;;;;;;;;;;;;;23.42;22.46;99606.00;5484185;26;19929;-84
2024/04/11 12:22:11;;;;;;;;;;;;;;;23.32;20.85;99615.94;5491413;26;19935;-81
2024/04/11 12:24:39;;;;;;;;;;;;;;;23.29;21.59;99613.31;5488468;26;19932;-82
2024/04/11 12:27:08;;;;;;;;;;;;;;;23.36;19.50;99607.22;5463554;26;19939;-85